createdAt,value
2019-01-12T00:00:19.515Z,3.34
2019-01-12T00:01:19.499Z,3.43
2019-01-12T00:02:19.464Z,3.43
2019-01-12T00:03:19.445Z,3.36
2019-01-12T00:04:19.416Z,3.30
2019-01-12T00:05:19.393Z,3.36
2019-01-12T00:06:19.380Z,3.27
2019-01-12T00:07:19.338Z,3.31
2019-01-12T00:08:19.320Z,3.44
2019-01-12T00:09:19.287Z,3.47
2019-01-12T00:10:19.262Z,3.49
2019-01-12T00:11:19.240Z,3.36
2019-01-12T00:12:19.214Z,3.31
2019-01-12T00:13:19.206Z,3.36
2019-01-12T00:14:19.171Z,3.24
2019-01-12T00:15:19.144Z,3.39
2019-01-12T00:16:19.126Z,3.30
2019-01-12T00:17:19.098Z,3.31
2019-01-12T00:18:19.075Z,3.31
2019-01-12T00:19:19.043Z,3.39
2019-01-12T00:20:19.022Z,3.33
2019-01-12T00:21:18.997Z,3.33
2019-01-12T00:22:18.970Z,3.33
2019-01-12T00:23:18.947Z,3.44
2019-01-12T00:24:18.916Z,3.44
2019-01-12T00:25:18.896Z,3.43
2019-01-12T00:26:18.880Z,3.46
2019-01-12T00:27:18.851Z,3.47
2019-01-12T00:28:18.823Z,3.43
2019-01-12T00:29:18.806Z,3.44
2019-01-12T00:30:18.775Z,3.47
2019-01-12T00:31:18.750Z,3.50
2019-01-12T00:32:18.720Z,3.47
2019-01-12T00:33:18.702Z,3.46
2019-01-12T00:34:18.673Z,3.54
2019-01-12T00:35:18.650Z,3.44
2019-01-12T00:36:18.625Z,3.49
2019-01-12T00:37:18.605Z,3.54
2019-01-12T00:38:18.578Z,3.64
2019-01-12T00:39:18.555Z,3.53
2019-01-12T00:40:18.522Z,3.68
2019-01-12T00:41:18.500Z,3.62
2019-01-12T00:42:18.478Z,3.67
2019-01-12T00:43:18.455Z,3.68
2019-01-12T00:44:18.480Z,3.57
2019-01-12T00:45:18.407Z,3.64
2019-01-12T00:46:18.377Z,3.65
2019-01-12T00:47:18.357Z,3.64
2019-01-12T00:48:18.331Z,3.58
2019-01-12T00:49:18.303Z,3.54
2019-01-12T00:50:18.278Z,3.60
2019-01-12T00:51:18.258Z,3.44
2019-01-12T00:52:18.233Z,3.49
2019-01-12T00:53:18.203Z,3.47
2019-01-12T00:54:18.195Z,3.44
2019-01-12T00:55:18.157Z,3.52
2019-01-12T00:56:18.128Z,3.44
2019-01-12T00:57:18.109Z,3.49
2019-01-12T00:58:18.077Z,3.44
2019-01-12T00:59:18.054Z,3.47
2019-01-12T01:00:18.029Z,3.54
2019-01-12T01:01:18.013Z,3.49
2019-01-12T01:02:17.983Z,3.46
2019-01-12T01:03:17.956Z,3.62
2019-01-12T01:04:17.928Z,3.57
2019-01-12T01:05:17.910Z,3.67
2019-01-12T01:06:17.890Z,3.60
2019-01-12T01:07:17.897Z,3.57
2019-01-12T01:08:18.629Z,3.64
2019-01-12T01:09:17.813Z,3.58
2019-01-12T01:10:17.789Z,3.52
2019-01-12T01:11:17.760Z,3.64
2019-01-12T01:12:17.738Z,3.61
2019-01-12T01:13:17.722Z,3.64
2019-01-12T01:14:17.683Z,3.67
2019-01-12T01:15:17.667Z,3.64
2019-01-12T01:16:17.639Z,3.57
2019-01-12T01:17:17.698Z,3.58
2019-01-12T01:18:17.594Z,3.71
2019-01-12T01:19:17.590Z,3.65
2019-01-12T01:20:17.538Z,3.71
2019-01-12T01:21:17.517Z,3.70
2019-01-12T01:22:17.487Z,3.67
2019-01-12T01:23:17.472Z,3.57
2019-01-12T01:24:17.446Z,3.67
2019-01-12T01:25:17.417Z,3.62
2019-01-12T01:26:17.387Z,3.65
2019-01-12T01:27:17.369Z,3.58
2019-01-12T01:28:17.356Z,3.71
2019-01-12T01:29:17.328Z,3.70
2019-01-12T01:30:17.294Z,3.75
2019-01-12T01:31:17.270Z,3.72
2019-01-12T01:32:17.245Z,3.79
2019-01-12T01:33:17.214Z,3.75
2019-01-12T01:34:17.195Z,3.75
2019-01-12T01:35:18.138Z,3.76
2019-01-12T01:36:17.144Z,3.76
2019-01-12T01:37:17.125Z,3.71
2019-01-12T01:38:17.093Z,3.68
2019-01-12T01:39:17.090Z,3.76
2019-01-12T01:40:17.049Z,3.79
2019-01-12T01:41:17.038Z,3.71
2019-01-12T01:42:17.000Z,3.76
2019-01-12T01:43:16.984Z,3.76
2019-01-12T01:44:16.948Z,3.68
2019-01-12T01:45:16.926Z,3.62
2019-01-12T01:46:16.900Z,3.67
2019-01-12T01:47:16.883Z,3.67
2019-01-12T01:48:16.853Z,3.60
2019-01-12T01:49:16.822Z,3.58
2019-01-12T01:50:16.801Z,3.54
2019-01-12T01:51:16.777Z,3.60
2019-01-12T01:52:16.745Z,3.62
2019-01-12T01:53:16.724Z,3.57
2019-01-12T01:54:16.704Z,3.61
2019-01-12T01:55:16.678Z,3.60
2019-01-12T01:56:16.653Z,3.58
2019-01-12T01:57:16.662Z,3.68
2019-01-12T01:58:16.598Z,3.68
2019-01-12T01:59:16.582Z,3.70
2019-01-12T02:00:16.554Z,3.71
2019-01-12T02:01:16.528Z,3.68
2019-01-12T02:02:16.516Z,3.76
2019-01-12T02:03:16.480Z,3.79
2019-01-12T02:04:16.453Z,3.79
2019-01-12T02:05:16.433Z,3.85
2019-01-12T02:06:16.410Z,3.76
2019-01-12T02:07:16.383Z,3.82
2019-01-12T02:08:16.360Z,3.75
2019-01-12T02:09:16.337Z,3.70
2019-01-12T02:10:16.305Z,3.85
2019-01-12T02:11:16.286Z,3.88
2019-01-12T02:12:16.260Z,3.79
2019-01-12T02:13:16.237Z,3.78
2019-01-12T02:14:16.210Z,3.68
2019-01-12T02:15:16.180Z,3.71
2019-01-12T02:16:16.161Z,3.70
2019-01-12T02:17:16.315Z,3.72
2019-01-12T02:18:16.115Z,3.72
2019-01-12T02:19:16.091Z,3.78
2019-01-12T02:20:16.064Z,3.79
2019-01-12T02:21:16.034Z,3.70
2019-01-12T02:22:16.168Z,3.71
2019-01-12T02:23:15.987Z,3.76
2019-01-12T02:24:15.978Z,3.70
2019-01-12T02:25:15.942Z,3.64
2019-01-12T02:26:15.916Z,3.65
2019-01-12T02:27:15.885Z,3.75
2019-01-12T02:28:15.858Z,3.70
2019-01-12T02:29:15.846Z,3.68
2019-01-12T02:30:15.817Z,3.68
2019-01-12T02:31:15.786Z,3.68
2019-01-12T02:32:15.761Z,3.67
2019-01-12T02:33:15.745Z,3.70
2019-01-12T02:34:15.720Z,3.79
2019-01-12T02:35:15.700Z,3.79
2019-01-12T02:36:15.671Z,3.89
2019-01-12T02:37:15.647Z,3.94
2019-01-12T02:38:15.616Z,3.97
2019-01-12T02:39:15.590Z,3.92
2019-01-12T02:40:15.577Z,4.12
2019-01-12T02:41:15.551Z,4.04
2019-01-12T02:42:15.522Z,4.07
2019-01-12T02:43:15.501Z,4.00
2019-01-12T02:44:15.474Z,4.00
2019-01-12T02:45:15.545Z,4.07
2019-01-12T02:46:17.212Z,3.98
2019-01-12T02:47:15.395Z,4.04
2019-01-12T02:48:15.383Z,3.96
2019-01-12T02:49:15.354Z,4.00
2019-01-12T02:50:15.383Z,4.03
2019-01-12T02:51:15.303Z,4.03
2019-01-12T02:52:15.278Z,4.12
2019-01-12T02:53:15.252Z,4.04
2019-01-12T02:54:15.230Z,4.12
2019-01-12T02:55:15.208Z,4.08
2019-01-12T02:56:15.178Z,4.10
2019-01-12T02:57:15.158Z,4.19
2019-01-12T02:58:15.129Z,4.06
2019-01-12T02:59:15.107Z,4.07
2019-01-12T03:00:15.077Z,4.15
2019-01-12T03:01:15.050Z,4.04
2019-01-12T03:02:15.039Z,4.14
2019-01-12T03:03:15.005Z,4.03
2019-01-12T03:04:14.985Z,3.98
2019-01-12T03:05:14.956Z,4.01
2019-01-12T03:06:14.937Z,4.12
2019-01-12T03:07:14.912Z,4.14
2019-01-12T03:08:14.889Z,4.10
2019-01-12T03:09:14.857Z,4.08
2019-01-12T03:10:14.850Z,4.04
2019-01-12T03:11:14.812Z,4.12
2019-01-12T03:12:14.787Z,4.14
2019-01-12T03:13:14.757Z,4.04
2019-01-12T03:14:14.733Z,4.10
2019-01-12T03:15:14.714Z,4.15
2019-01-12T03:16:14.684Z,4.10
2019-01-12T03:17:14.665Z,4.19
2019-01-12T03:18:14.639Z,4.15
2019-01-12T03:19:14.618Z,4.08
2019-01-12T03:20:14.584Z,4.18
2019-01-12T03:21:14.566Z,4.08
2019-01-12T03:22:14.540Z,4.18
2019-01-12T03:23:14.523Z,4.22
2019-01-12T03:24:14.489Z,4.19
2019-01-12T03:25:18.352Z,4.26
2019-01-12T03:26:14.447Z,4.14
2019-01-12T03:27:14.422Z,4.19
2019-01-12T03:28:14.391Z,4.21
2019-01-12T03:29:14.368Z,4.19
2019-01-12T03:30:14.354Z,4.21
2019-01-12T03:31:14.330Z,4.16
2019-01-12T03:32:14.290Z,4.16
2019-01-12T03:33:14.284Z,4.16
2019-01-12T03:34:14.252Z,4.08
2019-01-12T03:35:14.214Z,4.12
2019-01-12T03:36:14.193Z,4.08
2019-01-12T03:37:14.174Z,4.07
2019-01-12T03:38:14.148Z,4.15
2019-01-12T03:39:14.126Z,4.15
2019-01-12T03:40:14.096Z,4.14
2019-01-12T03:41:14.070Z,4.16
2019-01-12T03:42:14.049Z,4.12
2019-01-12T03:43:14.020Z,4.08
2019-01-12T03:44:13.999Z,4.06
2019-01-12T03:45:13.976Z,4.24
2019-01-12T03:46:13.953Z,4.25
2019-01-12T03:47:13.929Z,4.24
2019-01-12T03:48:13.957Z,4.24
2019-01-12T03:49:13.874Z,4.18
2019-01-12T03:50:13.848Z,4.19
2019-01-12T03:51:13.839Z,4.16
2019-01-12T03:52:13.803Z,4.15
2019-01-12T03:53:13.781Z,4.18
2019-01-12T03:54:13.758Z,4.04
2019-01-12T03:55:13.736Z,4.19
2019-01-12T03:56:13.707Z,4.19
2019-01-12T03:57:13.682Z,4.15
2019-01-12T03:58:13.663Z,4.19
2019-01-12T03:59:13.631Z,4.16
2019-01-12T04:00:13.612Z,4.14
2019-01-12T04:01:13.591Z,4.21
2019-01-12T04:02:13.558Z,4.10
2019-01-12T04:03:13.530Z,4.24
2019-01-12T04:04:13.510Z,4.14
2019-01-12T04:05:13.478Z,4.15
2019-01-12T04:06:13.468Z,4.15
2019-01-12T04:07:13.437Z,4.14
2019-01-12T04:08:13.412Z,4.00
2019-01-12T04:09:13.389Z,3.96
2019-01-12T04:10:13.364Z,3.89
2019-01-12T04:11:13.332Z,3.80
2019-01-12T04:12:13.313Z,3.80
2019-01-12T04:13:13.297Z,3.79
2019-01-12T04:14:13.266Z,3.85
2019-01-12T04:15:13.237Z,3.86
2019-01-12T04:16:13.212Z,3.82
2019-01-12T04:17:13.184Z,3.83
2019-01-12T04:18:13.169Z,3.85
2019-01-12T04:19:13.159Z,3.83
2019-01-12T04:20:13.119Z,3.90
2019-01-12T04:21:13.091Z,3.96
2019-01-12T04:22:13.063Z,3.90
2019-01-12T04:23:13.039Z,3.89
2019-01-12T04:24:13.018Z,3.90
2019-01-12T04:25:12.992Z,3.96
2019-01-12T04:26:12.970Z,3.90
2019-01-12T04:27:12.946Z,4.00
2019-01-12T04:28:12.924Z,3.92
2019-01-12T04:29:12.909Z,3.90
2019-01-12T04:30:12.871Z,3.92
2019-01-12T04:31:12.849Z,3.92
2019-01-12T04:32:12.831Z,3.94
2019-01-12T04:33:12.798Z,3.96
2019-01-12T04:34:12.768Z,3.97
2019-01-12T04:35:12.749Z,3.88
2019-01-12T04:36:12.726Z,3.85
2019-01-12T04:37:12.698Z,3.90
2019-01-12T04:38:12.677Z,3.83
2019-01-12T04:39:12.643Z,3.86
2019-01-12T04:40:12.634Z,3.88
2019-01-12T04:41:12.596Z,3.79
2019-01-12T04:42:12.575Z,3.86
2019-01-12T04:43:12.555Z,3.86
2019-01-12T04:44:12.519Z,3.80
2019-01-12T04:45:12.512Z,3.82
2019-01-12T04:46:12.475Z,3.68
2019-01-12T04:47:12.447Z,3.86
2019-01-12T04:48:12.429Z,3.82
2019-01-12T04:49:12.402Z,3.79
2019-01-12T04:50:12.377Z,3.78
2019-01-12T04:51:12.355Z,3.82
2019-01-12T04:52:12.323Z,3.79
2019-01-12T04:53:12.306Z,3.85
2019-01-12T04:54:12.281Z,3.78
2019-01-12T04:55:12.268Z,3.83
2019-01-12T04:56:12.223Z,3.80
2019-01-12T04:57:12.223Z,3.71
2019-01-12T04:58:12.185Z,3.79
2019-01-12T04:59:12.155Z,3.85
2019-01-12T05:00:12.132Z,3.83
2019-01-12T05:01:12.106Z,3.71
2019-01-12T05:02:12.078Z,3.75
2019-01-12T05:03:12.057Z,3.85
2019-01-12T05:04:12.034Z,3.71
2019-01-12T05:05:12.010Z,3.83
2019-01-12T05:06:11.985Z,3.80
2019-01-12T05:07:11.960Z,3.86
2019-01-12T05:08:11.927Z,3.85
2019-01-12T05:09:11.905Z,3.78
2019-01-12T05:10:11.889Z,3.80
2019-01-12T05:11:11.857Z,3.76
2019-01-12T05:12:11.830Z,3.78
2019-01-12T05:13:11.809Z,3.80
2019-01-12T05:14:11.783Z,3.76
2019-01-12T05:15:11.768Z,3.88
2019-01-12T05:16:11.730Z,3.80
2019-01-12T05:17:11.814Z,3.78
2019-01-12T05:18:11.687Z,3.85
2019-01-12T05:19:11.656Z,3.80
2019-01-12T05:20:11.638Z,3.85
2019-01-12T05:21:11.605Z,3.75
2019-01-12T05:22:11.583Z,3.88
2019-01-12T05:23:11.564Z,3.89
2019-01-12T05:24:11.531Z,3.88
2019-01-12T05:25:11.507Z,3.89
2019-01-12T05:26:11.483Z,3.90
2019-01-12T05:27:11.465Z,3.90
2019-01-12T05:28:11.433Z,3.88
2019-01-12T05:29:11.413Z,3.89
2019-01-12T05:30:11.437Z,3.94
2019-01-12T05:31:11.367Z,3.96
2019-01-12T05:32:11.340Z,3.94
2019-01-12T05:33:11.311Z,3.96
2019-01-12T05:34:11.289Z,3.94
2019-01-12T05:35:11.269Z,3.97
2019-01-12T05:36:12.240Z,3.94
2019-01-12T05:37:11.215Z,3.92
2019-01-12T05:38:11.196Z,3.92
2019-01-12T05:39:11.162Z,3.92
2019-01-12T05:40:11.152Z,3.92
2019-01-12T05:41:11.116Z,3.96
2019-01-12T05:42:11.094Z,3.92
2019-01-12T05:43:11.069Z,3.94
2019-01-12T05:44:11.037Z,3.86
2019-01-12T05:45:11.025Z,3.90
2019-01-12T05:46:10.991Z,3.98
2019-01-12T05:47:10.965Z,3.96
2019-01-12T05:48:10.939Z,3.94
2019-01-12T05:49:10.916Z,3.83
2019-01-12T05:50:10.894Z,3.85
2019-01-12T05:51:10.868Z,3.86
2019-01-12T05:52:10.846Z,3.83
2019-01-12T05:53:10.821Z,3.89
2019-01-12T05:54:10.791Z,3.90
2019-01-12T05:55:10.788Z,3.98
2019-01-12T05:56:10.749Z,3.90
2019-01-12T05:57:10.724Z,3.92
2019-01-12T05:58:10.696Z,3.96
2019-01-12T05:59:10.669Z,3.90
2019-01-12T06:00:10.644Z,3.89
2019-01-12T06:01:10.622Z,3.96
2019-01-12T06:02:10.602Z,3.90
2019-01-12T06:03:10.578Z,3.97
2019-01-12T06:04:10.555Z,3.92
2019-01-12T06:05:10.520Z,3.90
2019-01-12T06:06:10.510Z,3.94
2019-01-12T06:07:10.472Z,4.01
2019-01-12T06:08:10.458Z,3.98
2019-01-12T06:09:10.431Z,4.03
2019-01-12T06:10:10.405Z,4.07
2019-01-12T06:11:10.376Z,4.00
2019-01-12T06:12:10.353Z,4.01
2019-01-12T06:13:10.330Z,3.94
2019-01-12T06:14:10.308Z,3.92
2019-01-12T06:15:10.282Z,3.98
2019-01-12T06:16:10.253Z,3.97
2019-01-12T06:17:10.234Z,3.97
2019-01-12T06:18:10.208Z,3.90
2019-01-12T06:19:10.183Z,3.90
2019-01-12T06:20:10.157Z,3.92
2019-01-12T06:21:10.131Z,3.96
2019-01-12T06:22:10.103Z,3.94
2019-01-12T06:23:10.086Z,4.01
2019-01-12T06:24:10.064Z,4.04
2019-01-12T06:25:10.036Z,4.03
2019-01-12T06:26:10.007Z,3.98
2019-01-12T06:27:09.981Z,3.94
2019-01-12T06:28:09.969Z,3.97
2019-01-12T06:29:09.948Z,3.96
2019-01-12T06:30:09.907Z,3.96
2019-01-12T06:31:10.698Z,3.90
2019-01-12T06:32:09.864Z,3.94
2019-01-12T06:33:09.843Z,3.96
2019-01-12T06:34:09.815Z,3.96
2019-01-12T06:35:09.783Z,4.03
2019-01-12T06:36:09.760Z,4.14
2019-01-12T06:37:09.743Z,4.12
2019-01-12T06:38:09.708Z,4.08
2019-01-12T06:39:09.689Z,4.18
2019-01-12T06:40:09.657Z,4.22
2019-01-12T06:41:09.648Z,4.21
2019-01-12T06:42:09.616Z,4.16
2019-01-12T06:43:09.597Z,4.28
2019-01-12T06:44:09.566Z,4.34
2019-01-12T06:45:09.544Z,4.28
2019-01-12T06:46:09.525Z,4.42
2019-01-12T06:47:09.495Z,4.34
2019-01-12T06:48:09.464Z,4.32
2019-01-12T06:49:09.445Z,4.40
2019-01-12T06:50:09.419Z,4.36
2019-01-12T06:51:09.393Z,4.33
2019-01-12T06:52:09.365Z,4.28
2019-01-12T06:53:09.340Z,4.36
2019-01-12T06:54:09.327Z,4.50
2019-01-12T06:55:09.291Z,4.50
2019-01-12T06:56:10.934Z,4.47
2019-01-12T06:57:09.240Z,4.44
2019-01-12T06:58:09.224Z,4.52
2019-01-12T06:59:09.198Z,4.54
2019-01-12T07:00:09.168Z,4.52
2019-01-12T07:01:09.158Z,4.47
2019-01-12T07:02:09.119Z,4.52
2019-01-12T07:03:09.135Z,4.55
2019-01-12T07:04:09.072Z,4.54
2019-01-12T07:05:09.067Z,4.55
2019-01-12T07:06:09.023Z,4.52
2019-01-12T07:07:09.001Z,4.58
2019-01-12T07:08:08.973Z,4.58
2019-01-12T07:09:08.979Z,4.55
2019-01-12T07:10:08.924Z,4.59
2019-01-12T07:11:08.905Z,4.64
2019-01-12T07:12:08.879Z,4.61
2019-01-12T07:13:08.851Z,4.50
2019-01-12T07:14:08.828Z,4.55
2019-01-12T07:15:08.803Z,4.51
2019-01-12T07:16:08.775Z,4.55
2019-01-12T07:17:08.753Z,4.58
2019-01-12T07:18:09.039Z,4.61
2019-01-12T07:19:08.711Z,4.59
2019-01-12T07:20:08.686Z,4.44
2019-01-12T07:21:08.660Z,4.54
2019-01-12T07:22:08.638Z,4.57
2019-01-12T07:23:08.612Z,4.59
2019-01-12T07:24:08.587Z,4.57
2019-01-12T07:25:08.562Z,4.46
2019-01-12T07:26:08.539Z,4.58
2019-01-12T07:27:08.507Z,4.57
2019-01-12T07:28:08.488Z,4.52
2019-01-12T07:29:08.465Z,4.61
2019-01-12T07:30:08.439Z,4.57
2019-01-12T07:31:08.409Z,4.57
2019-01-12T07:32:08.390Z,4.50
2019-01-12T07:33:08.372Z,4.58
2019-01-12T07:34:08.336Z,4.57
2019-01-12T07:35:08.321Z,4.57
2019-01-12T07:36:08.292Z,4.55
2019-01-12T07:37:08.263Z,4.64
2019-01-12T07:38:08.240Z,4.57
2019-01-12T07:39:08.222Z,4.57
2019-01-12T07:40:08.188Z,4.51
2019-01-12T07:41:08.172Z,4.50
2019-01-12T07:42:08.146Z,4.58
2019-01-12T07:43:08.117Z,4.54
2019-01-12T07:44:08.095Z,4.52
2019-01-12T07:45:08.066Z,4.46
2019-01-12T07:46:08.050Z,4.58
2019-01-12T07:47:08.023Z,4.59
2019-01-12T07:48:08.055Z,4.58
2019-01-12T07:49:07.969Z,4.58
2019-01-12T07:50:07.944Z,4.62
2019-01-12T07:51:07.927Z,4.62
2019-01-12T07:52:07.902Z,4.62
2019-01-12T07:53:07.876Z,4.72
2019-01-12T07:54:07.854Z,4.62
2019-01-12T07:55:07.825Z,4.62
2019-01-12T07:56:07.800Z,4.57
2019-01-12T07:57:07.780Z,4.65
2019-01-12T07:58:07.751Z,4.58
2019-01-12T07:59:07.725Z,4.69
2019-01-12T08:00:07.700Z,4.64
2019-01-12T08:01:07.677Z,4.65
2019-01-12T08:02:07.658Z,4.70
2019-01-12T08:03:07.637Z,4.67
2019-01-12T08:04:07.604Z,4.65
2019-01-12T08:05:07.588Z,4.77
2019-01-12T08:06:07.556Z,4.76
2019-01-12T08:07:07.536Z,4.79
2019-01-12T08:08:07.511Z,4.76
2019-01-12T08:09:07.482Z,4.73
2019-01-12T08:10:07.463Z,4.86
2019-01-12T08:11:07.437Z,4.91
2019-01-12T08:12:07.409Z,4.83
2019-01-12T08:13:07.391Z,4.83
2019-01-12T08:14:07.370Z,4.77
2019-01-12T08:15:07.334Z,4.83
2019-01-12T08:16:07.313Z,4.83
2019-01-12T08:17:07.290Z,4.88
2019-01-12T08:18:07.270Z,4.80
2019-01-12T08:19:07.243Z,4.84
2019-01-12T08:20:07.219Z,4.91
2019-01-12T08:21:07.199Z,4.91
2019-01-12T08:22:07.167Z,4.91
2019-01-12T08:23:07.141Z,4.91
2019-01-12T08:24:07.719Z,4.99
2019-01-12T08:25:07.099Z,4.92
2019-01-12T08:26:07.064Z,4.92
2019-01-12T08:27:07.048Z,4.89
2019-01-12T08:28:07.026Z,4.96
2019-01-12T08:29:07.000Z,4.88
2019-01-12T08:30:06.972Z,4.89
2019-01-12T08:31:06.947Z,4.98
2019-01-12T08:32:06.924Z,4.92
2019-01-12T08:33:06.899Z,4.98
2019-01-12T08:34:06.880Z,5.01
2019-01-12T08:35:06.851Z,5.01
2019-01-12T08:36:06.831Z,4.98
2019-01-12T08:37:06.809Z,4.98
2019-01-12T08:38:06.784Z,4.96
2019-01-12T08:39:06.758Z,4.98
2019-01-12T08:40:06.736Z,4.99
2019-01-12T08:41:06.708Z,5.01
2019-01-12T08:42:06.688Z,5.04
2019-01-12T08:43:06.666Z,4.99
2019-01-12T08:44:06.636Z,5.09
2019-01-12T08:45:06.617Z,5.02
2019-01-12T08:46:06.586Z,4.95
2019-01-12T08:47:06.583Z,5.02
2019-01-12T08:48:06.538Z,5.10
2019-01-12T08:49:06.512Z,5.09
2019-01-12T08:50:06.496Z,5.05
2019-01-12T08:51:06.471Z,5.10
2019-01-12T08:52:06.445Z,5.14
2019-01-12T08:53:06.423Z,5.10
2019-01-12T08:54:06.405Z,5.25
2019-01-12T08:55:07.156Z,5.16
2019-01-12T08:56:06.405Z,5.17
2019-01-12T08:57:06.321Z,5.34
2019-01-12T08:58:06.350Z,5.27
2019-01-12T08:59:06.797Z,5.37
2019-01-12T09:00:06.629Z,5.37
2019-01-12T09:01:06.666Z,5.31
2019-01-12T09:02:06.200Z,5.34
2019-01-12T09:03:06.174Z,5.34
2019-01-12T09:04:06.156Z,5.40
2019-01-12T09:05:06.133Z,5.35
2019-01-12T09:06:06.104Z,5.31
2019-01-12T09:07:06.088Z,5.32
2019-01-12T09:08:06.057Z,5.40
2019-01-12T09:09:06.041Z,5.37
2019-01-12T09:10:06.012Z,5.43
2019-01-12T09:11:05.987Z,5.50
2019-01-12T09:12:05.966Z,5.41
2019-01-12T09:13:05.944Z,5.45
2019-01-12T09:14:05.911Z,5.49
2019-01-12T09:15:05.896Z,5.45
2019-01-12T09:16:05.867Z,5.52
2019-01-12T09:17:05.848Z,5.48
2019-01-12T09:18:05.832Z,5.56
2019-01-12T09:19:05.793Z,5.48
2019-01-12T09:20:05.775Z,5.60
2019-01-12T09:21:05.753Z,5.53
2019-01-12T09:22:05.721Z,5.41
2019-01-12T09:23:05.702Z,5.40
2019-01-12T09:24:05.673Z,5.41
2019-01-12T09:25:05.653Z,5.56
2019-01-12T09:26:05.628Z,5.60
2019-01-12T09:27:05.609Z,5.53
2019-01-12T09:28:05.588Z,5.48
2019-01-12T09:29:05.564Z,5.60
2019-01-12T09:30:05.535Z,5.50
2019-01-12T09:31:05.509Z,5.53
2019-01-12T09:32:05.487Z,5.63
2019-01-12T09:33:05.467Z,5.53
2019-01-12T09:34:05.442Z,5.59
2019-01-12T09:35:05.416Z,5.63
2019-01-12T09:36:05.390Z,5.59
2019-01-12T09:37:05.366Z,5.57
2019-01-12T09:38:05.360Z,5.67
2019-01-12T09:39:05.327Z,5.67
2019-01-12T09:40:05.298Z,5.67
2019-01-12T09:41:05.272Z,5.67
2019-01-12T09:42:05.290Z,5.64
2019-01-12T09:43:05.225Z,5.71
2019-01-12T09:44:05.199Z,5.74
2019-01-12T09:45:05.176Z,5.78
2019-01-12T09:46:05.154Z,5.75
2019-01-12T09:47:05.137Z,5.77
2019-01-12T09:48:05.111Z,5.78
2019-01-12T09:49:05.083Z,5.77
2019-01-12T09:50:05.057Z,5.75
2019-01-12T09:51:05.035Z,5.81
2019-01-12T09:52:05.062Z,5.85
2019-01-12T09:53:04.992Z,5.77
2019-01-12T09:54:04.968Z,5.85
2019-01-12T09:55:04.951Z,5.82
2019-01-12T09:56:04.916Z,5.83
2019-01-12T09:57:04.894Z,5.98
2019-01-12T09:58:04.874Z,5.91
2019-01-12T09:59:04.853Z,5.95
2019-01-12T10:00:04.823Z,6.03
2019-01-12T10:01:04.797Z,5.88
2019-01-12T10:02:04.783Z,5.96
2019-01-12T10:03:04.761Z,5.95
2019-01-12T10:04:04.729Z,5.93
2019-01-12T10:05:04.713Z,5.93
2019-01-12T10:06:04.688Z,5.88
2019-01-12T10:07:04.658Z,5.92
2019-01-12T10:08:04.636Z,5.92
2019-01-12T10:09:04.611Z,5.86
2019-01-12T10:10:04.589Z,5.86
2019-01-12T10:11:04.567Z,5.98
2019-01-12T10:12:04.547Z,5.91
2019-01-12T10:13:04.525Z,5.95
2019-01-12T10:14:04.499Z,5.86
2019-01-12T10:15:04.474Z,5.88
2019-01-12T10:16:04.455Z,5.85
2019-01-12T10:17:04.426Z,5.92
2019-01-12T10:18:04.402Z,5.89
2019-01-12T10:19:04.378Z,5.95
2019-01-12T10:20:04.356Z,5.92
2019-01-12T10:21:04.340Z,6.00
2019-01-12T10:22:04.314Z,5.92
2019-01-12T10:23:04.332Z,5.96
2019-01-12T10:24:04.264Z,5.98
2019-01-12T10:25:04.237Z,5.88
2019-01-12T10:26:04.222Z,5.82
2019-01-12T10:27:04.196Z,5.95
2019-01-12T10:28:04.167Z,5.95
2019-01-12T10:29:04.145Z,5.89
2019-01-12T10:30:04.119Z,5.85
2019-01-12T10:31:04.106Z,6.00
2019-01-12T10:32:04.078Z,5.98
2019-01-12T10:33:04.052Z,6.00
2019-01-12T10:34:04.030Z,6.01
2019-01-12T10:35:04.005Z,5.88
2019-01-12T10:36:03.980Z,5.92
2019-01-12T10:37:03.954Z,5.92
2019-01-12T10:38:03.948Z,6.00
2019-01-12T10:39:03.916Z,5.88
2019-01-12T10:40:03.884Z,5.92
2019-01-12T10:41:03.868Z,5.81
2019-01-12T10:42:03.840Z,5.81
2019-01-12T10:43:03.823Z,5.86
2019-01-12T10:44:03.797Z,5.81
2019-01-12T10:45:04.653Z,5.74
2019-01-12T10:46:03.750Z,5.75
2019-01-12T10:47:03.728Z,5.74
2019-01-12T10:48:03.702Z,5.66
2019-01-12T10:49:03.691Z,5.68
2019-01-12T10:50:03.653Z,5.66
2019-01-12T10:51:03.635Z,5.67
2019-01-12T10:52:03.607Z,5.67
2019-01-12T10:53:03.585Z,5.64
2019-01-12T10:54:03.559Z,5.73
2019-01-12T10:55:03.532Z,5.71
2019-01-12T10:56:03.511Z,5.74
2019-01-12T10:57:05.638Z,5.81
2019-01-12T10:58:03.461Z,5.81
2019-01-12T10:59:03.439Z,5.83
2019-01-12T11:00:03.410Z,5.82
2019-01-12T11:01:03.389Z,5.86
2019-01-12T11:02:03.367Z,5.86
2019-01-12T11:03:03.341Z,5.83
2019-01-12T11:04:03.366Z,5.89
2019-01-12T11:05:03.300Z,5.85
2019-01-12T11:06:03.277Z,5.85
2019-01-12T11:07:03.248Z,5.93
2019-01-12T11:08:03.226Z,5.89
2019-01-12T11:09:03.200Z,5.89
2019-01-12T11:10:04.268Z,5.93
2019-01-12T11:11:03.161Z,5.93
2019-01-12T11:12:03.135Z,5.86
2019-01-12T11:13:03.107Z,5.98
2019-01-12T11:14:03.088Z,5.88
2019-01-12T11:15:03.064Z,5.89
2019-01-12T11:16:03.036Z,6.04
2019-01-12T11:17:03.015Z,5.91
2019-01-12T11:18:02.998Z,5.85
2019-01-12T11:19:02.972Z,5.85
2019-01-12T11:20:02.949Z,5.86
2019-01-12T11:21:02.928Z,5.86
2019-01-12T11:22:02.901Z,5.81
2019-01-12T11:23:02.872Z,5.86
2019-01-12T11:24:02.856Z,5.70
2019-01-12T11:25:02.829Z,5.78
2019-01-12T11:26:02.804Z,5.71
2019-01-12T11:27:02.786Z,5.70
2019-01-12T11:28:02.760Z,5.55
2019-01-12T11:29:02.731Z,5.64
2019-01-12T11:30:02.715Z,5.64
2019-01-12T11:31:02.684Z,5.46
2019-01-12T11:32:02.667Z,5.52
2019-01-12T11:33:02.641Z,5.64
2019-01-12T11:34:02.619Z,5.48
2019-01-12T11:35:02.597Z,5.57
2019-01-12T11:36:02.571Z,5.60
2019-01-12T11:37:02.546Z,5.46
2019-01-12T11:38:02.523Z,5.53
2019-01-12T11:39:02.494Z,5.45
2019-01-12T11:40:02.479Z,5.41
2019-01-12T11:41:02.449Z,5.38
2019-01-12T11:42:02.430Z,5.46
2019-01-12T11:43:02.398Z,5.43
2019-01-12T11:44:02.377Z,5.41
2019-01-12T11:45:02.358Z,5.49
2019-01-12T11:46:02.326Z,5.43
2019-01-12T11:47:02.305Z,5.46
2019-01-12T11:48:02.284Z,5.43
2019-01-12T11:49:02.256Z,5.45
2019-01-12T11:50:02.244Z,5.50
2019-01-12T11:51:02.214Z,5.49
2019-01-12T11:52:02.183Z,5.56
2019-01-12T11:53:02.161Z,5.53
2019-01-12T11:54:02.139Z,5.46
2019-01-12T11:55:02.122Z,5.53
2019-01-12T11:56:02.087Z,5.64
2019-01-12T11:57:02.071Z,5.53
2019-01-12T11:58:02.046Z,5.45
2019-01-12T11:59:02.023Z,5.45
2019-01-12T12:00:02.012Z,5.45
2019-01-12T12:01:01.975Z,5.50
2019-01-12T12:02:01.950Z,5.53
2019-01-12T12:03:01.929Z,5.48
2019-01-12T12:04:01.905Z,5.38
2019-01-12T12:05:01.881Z,5.40
2019-01-12T12:06:01.854Z,5.45
2019-01-12T12:07:01.832Z,5.38
2019-01-12T12:08:01.806Z,5.40
2019-01-12T12:09:01.783Z,5.32
2019-01-12T12:10:01.755Z,5.20
2019-01-12T12:11:01.730Z,5.16
2019-01-12T12:12:01.710Z,5.34
2019-01-12T12:13:01.682Z,5.28
2019-01-12T12:14:01.656Z,5.25
2019-01-12T12:15:01.636Z,5.16
2019-01-12T12:16:01.617Z,5.22
2019-01-12T12:17:01.590Z,5.17
2019-01-12T12:18:01.568Z,5.16
2019-01-12T12:19:01.542Z,5.23
2019-01-12T12:20:01.520Z,5.13
2019-01-12T12:21:01.497Z,5.20
2019-01-12T12:22:01.472Z,5.13
2019-01-12T12:23:01.442Z,5.14
2019-01-12T12:24:01.420Z,5.14
2019-01-12T12:25:01.394Z,5.13
2019-01-12T12:26:01.376Z,5.19
2019-01-12T12:27:01.368Z,5.22
2019-01-12T12:28:01.319Z,5.19
2019-01-12T12:29:01.303Z,5.16
2019-01-12T12:30:01.278Z,5.27
2019-01-12T12:31:01.245Z,5.19
2019-01-12T12:32:01.231Z,5.17
2019-01-12T12:33:01.205Z,5.20
2019-01-12T12:34:01.177Z,5.17
2019-01-12T12:35:01.155Z,5.35
2019-01-12T12:36:01.132Z,5.28
2019-01-12T12:37:01.109Z,5.16
2019-01-12T12:38:01.081Z,5.20
2019-01-12T12:39:01.058Z,5.27
2019-01-12T12:40:01.030Z,5.34
2019-01-12T12:41:01.013Z,5.38
2019-01-12T12:42:00.992Z,5.41
2019-01-12T12:43:00.970Z,5.46
2019-01-12T12:44:00.946Z,5.37
2019-01-12T12:45:00.916Z,5.38
2019-01-12T12:46:00.891Z,5.48
2019-01-12T12:47:00.865Z,5.43
2019-01-12T12:48:00.843Z,5.49
2019-01-12T12:49:00.818Z,5.49
2019-01-12T12:50:00.793Z,5.49
2019-01-12T12:51:00.768Z,5.53
2019-01-12T12:52:00.745Z,5.57
2019-01-12T12:53:00.724Z,5.55
2019-01-12T12:54:00.698Z,5.55
2019-01-12T12:55:00.675Z,5.57
2019-01-12T12:56:00.656Z,5.56
2019-01-12T12:57:00.634Z,5.60
2019-01-12T12:58:00.601Z,5.55
2019-01-12T12:59:00.594Z,5.56
2019-01-12T13:00:00.553Z,5.59
2019-01-12T13:01:00.537Z,5.60
2019-01-12T13:02:00.507Z,5.64
2019-01-12T13:03:00.491Z,5.66
2019-01-12T13:04:00.463Z,5.70
2019-01-12T13:05:00.441Z,5.64
2019-01-12T13:06:00.412Z,5.63
2019-01-12T13:07:00.388Z,5.67
2019-01-12T13:08:00.363Z,5.64
2019-01-12T13:09:00.341Z,5.70
2019-01-12T13:10:00.316Z,5.63
2019-01-12T13:11:00.291Z,5.63
2019-01-12T13:12:00.268Z,5.64
2019-01-12T13:13:00.244Z,5.52
2019-01-12T13:14:00.220Z,5.60
2019-01-12T13:15:00.241Z,5.64
2019-01-12T13:16:00.178Z,5.60
2019-01-12T13:17:00.156Z,5.60
2019-01-12T13:18:00.132Z,5.45